Etusivu
METAR-TAF:

METAR-TAF

Lentoasemat :

Toledo Suburban Airport

Lambertville, Michigan, Yhdysvallat

Leveyspiiri: 41-44-09N, Pituuspiiri: 083-39-19W, korkeus merenpinnasta: 204 m

Tämänhetkinen sää

Tämä raportti tehtiin 25 minuuttia sitten, kello 15.35 UTC
Tuuli 7 kn idästä
Lämpötila 13°C
Kosteus 94%
Ilmanpaine 1016 hPa
Näkyvyys: 16.1 km
Hajanaisia pilviä 2200 ft:n korkeudessa
Hajanaisia pilviä 3800 ft:n korkeudessa
Hajonneita pilviä 11000 ft:n korkeudessa
heikkoa tihkusadetta

METAR: KDUH 221535Z AUTO 08007KT 10SM -DZ SCT022 SCT038 BKN110 13/12 A3001 RMK AO2 T01260116

Aika: 12:00 (16:00 UTC)


TAF: puuttuu

Säähavainnot ja -ennusteet yli 4000 lentoasemalta (METAR- ja TAF-raportit).

Käytössä olevat sääasemat on merkitty karttaan keltaisilla ja punaisilla pisteillä.

Aseta hiiri pisteen päälle nähdäksesi sääaseman nimen.

Klikkaa sitten nähdäksesi säähavainnot ja -ennusteet.

Kartan vaihtaminen: klikkaa mustalla rastilla varustettuja vihreitä pisteitä, niin voit zoomata sisään; viivalla varustettua vihreää pistettä, niin voit zoomata ulos tai vihreitä nuolia, niin pääset viereisille kartoille.


METAR-TAF: